Time;durP1;ratioP1;P1;durP2;ratioP2;P2;SDS_P1;SDS_P2;PMS_P1;PMS_P2;Temp;Humidity;BMP_temperature;BMP_pressure;BME280_temperature;BME280_humidity;BME280_pressure;Samples;Min_cycle;Max_cycle;Signal;HPM_P1;HPM_P2
2022/07/01 00:01:02;;;;;;;13.69;6.95;;;;;;;19.92;52.71;100754.71;456015;116;930450;-74
2022/07/01 00:02:05;;;;;;;9.44;6.48;;;;;;;19.90;52.81;100754.98;456135;116;922599;-75
2022/07/01 00:03:08;;;;;;;14.41;7.81;;;;;;;19.90;52.81;100754.17;456119;116;922524;-75
2022/07/01 00:04:11;;;;;;;8.31;6.72;;;;;;;19.90;52.94;100756.94;456127;116;922605;-76
2022/07/01 00:05:14;;;;;;;10.04;7.61;;;;;;;19.88;52.93;100764.67;456110;116;922795;-74
2022/07/01 00:06:22;;;;;;;10.91;7.89;;;;;;;19.86;52.96;100762.16;455859;116;922614;-75
2022/07/01 00:07:25;;;;;;;19.77;6.46;;;;;;;19.84;52.95;100758.03;456161;116;922806;-75
2022/07/01 00:08:28;;;;;;;17.61;6.67;;;;;;;19.82;53.03;100758.29;455258;114;922544;-74
2022/07/01 00:09:31;;;;;;;13.76;6.89;;;;;;;19.81;53.18;100753.85;455214;116;922919;-74
2022/07/01 00:10:37;;;;;;;15.35;6.81;;;;;;;19.81;53.32;100753.02;455214;116;922564;-73
2022/07/01 00:11:39;;;;;;;8.41;6.54;;;;;;;19.81;53.39;100753.02;455055;116;922620;-75
2022/07/01 00:12:42;;;;;;;8.44;6.68;;;;;;;19.80;53.54;100749.41;455227;116;922586;-75
2022/07/01 00:13:45;;;;;;;8.74;6.89;;;;;;;19.82;53.64;100749.16;456844;114;922463;-74
2022/07/01 00:14:48;;;;;;;8.23;6.92;;;;;;;19.82;53.65;100738.92;465406;113;922520;-74
2022/07/01 00:15:51;;;;;;;9.33;6.49;;;;;;;19.84;53.64;100736.72;465470;114;922926;-74
2022/07/01 00:16:54;;;;;;;9.47;6.94;;;;;;;19.85;53.66;100741.13;465465;114;922660;-75
2022/07/01 00:17:57;;;;;;;9.79;7.64;;;;;;;19.87;53.57;100740.86;465423;114;922890;-74
2022/07/01 00:19:00;;;;;;;8.44;6.81;;;;;;;19.87;53.48;100735.33;465490;114;922694;-74
2022/07/01 00:20:04;;;;;;;8.55;7.26;;;;;;;19.87;53.42;100736.16;465350;113;922535;-74
2022/07/01 00:21:07;;;;;;;8.34;7.25;;;;;;;19.87;53.44;100733.40;465311;114;922520;-75
2022/07/01 00:22:12;;;;;;;13.57;7.07;;;;;;;19.87;53.45;100733.40;464695;114;922519;-75
2022/07/01 00:23:16;;;;;;;9.49;7.39;;;;;;;19.88;53.39;100742.53;465471;114;922568;-75
2022/07/01 00:24:19;;;;;;;9.44;7.63;;;;;;;19.86;53.35;100736.42;465351;113;922567;-75
2022/07/01 00:25:22;;;;;;;15.53;9.47;;;;;;;19.83;53.25;100742.52;465508;114;922550;-75
2022/07/01 00:26:26;;;;;;;17.03;9.09;;;;;;;19.81;53.21;100737.25;465348;114;923340;-74
2022/07/01 00:27:29;;;;;;;13.24;9.41;;;;;;;19.78;53.21;100742.50;465447;114;922556;-73
2022/07/01 00:28:32;;;;;;;13.41;9.09;;;;;;;19.75;53.21;100740.27;465484;114;922499;-75
2022/07/01 00:29:35;;;;;;;12.42;9.78;;;;;;;19.73;53.33;100739.73;464558;113;922740;-76
2022/07/01 00:30:39;;;;;;;11.57;9.73;;;;;;;19.72;53.35;100749.95;464475;114;922559;-75
2022/07/01 00:31:42;;;;;;;14.32;9.48;;;;;;;19.72;53.28;100744.42;465467;114;930157;-75
2022/07/01 00:32:46;;;;;;;12.76;9.51;;;;;;;19.72;53.20;100749.95;465447;114;922514;-73
2022/07/01 00:33:49;;;;;;;11.71;8.74;;;;;;;19.73;53.18;100746.09;463169;113;922561;-76
2022/07/01 00:34:52;;;;;;;10.04;9.06;;;;;;;19.74;53.15;100750.50;457362;115;922584;-73
2022/07/01 00:35:55;;;;;;;13.71;9.83;;;;;;;19.74;53.14;100747.73;457382;116;922479;-74
2022/07/01 00:36:59;;;;;;;15.78;9.68;;;;;;;19.76;53.08;100745.53;457391;116;923061;-75
2022/07/01 00:38:02;;;;;;;13.56;10.96;;;;;;;19.78;53.08;100748.04;457352;116;922570;-75
2022/07/01 00:39:05;;;;;;;15.64;10.15;;;;;;;19.79;53.02;100741.41;457339;115;922539;-75
2022/07/01 00:40:09;;;;;;;14.72;10.19;;;;;;;19.80;52.95;100741.11;457311;116;922615;-75
2022/07/01 00:41:12;;;;;;;15.96;10.86;;;;;;;19.81;52.85;100747.48;457377;115;922921;-75
2022/07/01 00:42:15;;;;;;;11.67;10.39;;;;;;;19.81;52.81;100740.02;457443;116;922558;-74
2022/07/01 00:43:18;;;;;;;11.58;10.11;;;;;;;19.81;52.85;100740.02;457408;116;922902;-74
2022/07/01 00:44:23;;;;;;;12.36;10.53;;;;;;;19.81;52.79;100739.19;454113;116;922836;-74
2022/07/01 00:45:26;;;;;;;18.71;11.24;;;;;;;19.80;52.83;100740.28;457386;116;922534;-74
2022/07/01 00:46:30;;;;;;;14.78;12.03;;;;;;;19.81;52.72;100739.19;457257;116;922756;-74
2022/07/01 00:47:33;;;;;;;14.36;11.74;;;;;;;19.81;52.66;100739.19;457208;116;930942;-74
2022/07/01 00:48:37;;;;;;;17.73;11.08;;;;;;;19.80;52.55;100740.28;457341;116;930635;-74
2022/07/01 00:49:40;;;;;;;13.61;11.76;;;;;;;19.79;52.66;100744.17;457265;115;922557;-74
2022/07/01 00:50:44;;;;;;;20.91;12.46;;;;;;;19.79;52.77;100736.68;459308;114;923123;-75
2022/07/01 00:51:47;;;;;;;15.51;12.03;;;;;;;19.80;52.83;100737.52;465328;114;922601;-75
2022/07/01 00:52:50;;;;;;;12.44;11.24;;;;;;;19.81;52.83;100747.48;465301;114;930395;-75
2022/07/01 00:53:54;;;;;;;15.52;11.12;;;;;;;19.81;52.84;100742.78;465459;114;922507;-75
2022/07/01 00:54:59;;;;;;;14.39;12.89;;;;;;;19.82;52.80;100743.62;464988;113;922524;-75
2022/07/01 00:56:03;;;;;;;17.44;13.82;;;;;;;19.81;52.66;100740.02;456354;116;922583;-74
2022/07/01 00:57:11;;;;;;;16.17;13.86;;;;;;;19.81;52.57;100741.95;456569;116;922554;-75
2022/07/01 00:58:14;;;;;;;17.28;13.90;;;;;;;19.80;52.58;100741.11;456373;116;922543;-73
2022/07/01 00:59:17;;;;;;;22.46;12.92;;;;;;;19.80;52.56;100738.34;456519;116;923004;-74
2022/07/01 01:00:24;;;;;;;16.52;12.58;;;;;;;19.80;52.57;100745.81;456455;116;922588;-73
2022/07/01 01:01:27;;;;;;;18.29;14.49;;;;;;;19.80;52.54;100740.28;456298;116;922590;-75
2022/07/01 01:02:30;;;;;;;22.85;14.88;;;;;;;19.79;52.54;100744.17;456553;116;922530;-75
2022/07/01 01:03:33;;;;;;;27.36;16.08;;;;;;;19.78;52.50;100748.04;456530;116;923066;-75
2022/07/01 01:04:38;;;;;;;21.95;17.52;;;;;;;19.77;52.26;100744.44;455377;114;922602;-74
2022/07/01 01:05:41;;;;;;;23.52;18.75;;;;;;;19.75;52.17;100748.56;455055;116;922701;-75
2022/07/01 01:06:44;;;;;;;25.65;19.04;;;;;;;19.72;52.06;100744.42;455216;116;922639;-75
2022/07/01 01:07:50;;;;;;;25.39;18.66;;;;;;;19.71;52.07;100742.75;455238;116;923048;-75
2022/07/01 01:08:53;;;;;;;28.24;18.82;;;;;;;19.68;51.94;100748.84;455098;116;922618;-74
2022/07/01 01:09:56;;;;;;;21.14;17.81;;;;;;;19.66;51.93;100742.73;456117;114;923097;-75
2022/07/01 01:11:00;;;;;;;20.68;17.94;;;;;;;19.64;51.87;100742.16;465307;114;922428;-74
2022/07/01 01:12:03;;;;;;;26.61;17.57;;;;;;;19.63;51.90;100750.76;465431;114;922608;-75
2022/07/01 01:13:06;;;;;;;21.54;18.19;;;;;;;19.62;52.04;100743.55;465459;114;922579;-75
2022/07/01 01:14:10;;;;;;;21.71;17.49;;;;;;;19.61;52.04;100741.89;465415;113;922431;-75
2022/07/01 01:15:20;;;;;;;19.36;15.29;;;;;;;19.60;51.95;100745.75;465358;114;922568;-76
2022/07/01 01:16:25;;;;;;;18.39;15.96;;;;;;;19.56;51.89;100740.77;464729;113;922605;-74
2022/07/01 01:17:29;;;;;;;18.89;16.60;;;;;;;19.55;51.84;100743.80;465338;114;922564;-75
2022/07/01 01:18:33;;;;;;;20.71;15.25;;;;;;;19.52;51.90;100739.63;465398;114;923034;-75
2022/07/01 01:19:36;;;;;;;17.11;15.31;;;;;;;19.50;51.92;100747.38;465243;113;922801;-75
2022/07/01 01:20:39;;;;;;;18.21;15.78;;;;;;;19.49;51.94;100742.95;465391;114;930489;-74
2022/07/01 01:21:43;;;;;;;20.10;15.86;;;;;;;19.47;52.01;100739.61;465333;114;922611;-74
2022/07/01 01:22:48;;;;;;;25.20;16.01;;;;;;;19.44;51.88;100737.36;465380;114;930516;-75
2022/07/01 01:23:51;;;;;;;23.62;16.38;;;;;;;19.41;51.86;100743.41;465286;114;922870;-75
2022/07/01 01:24:54;;;;;;;22.04;16.27;;;;;;;19.40;51.92;100740.94;465426;113;922505;-74
2022/07/01 01:25:57;;;;;;;18.30;16.41;;;;;;;19.37;52.04;100747.83;465448;114;922616;-74
2022/07/01 01:27:00;;;;;;;20.34;16.13;;;;;;;19.35;52.26;100740.91;465424;114;922849;-75
2022/07/01 01:28:04;;;;;;;25.84;16.90;;;;;;;19.34;52.21;100737.31;465469;114;922687;-74
2022/07/01 01:29:07;;;;;;;18.15;16.20;;;;;;;19.33;52.24;100740.34;465436;114;922500;-74
2022/07/01 01:30:11;;;;;;;28.95;16.34;;;;;;;19.32;52.30;100747.80;463689;114;922535;-75
2022/07/01 01:31:15;;;;;;;23.81;17.73;;;;;;;19.32;52.44;100739.50;465367;114;923129;-74
2022/07/01 01:32:19;;;;;;;23.71;17.75;;;;;;;19.32;52.48;100742.27;465357;114;922670;-75
2022/07/01 01:33:22;;;;;;;21.66;17.16;;;;;;;19.33;52.58;100740.34;465415;114;922584;-74
2022/07/01 01:34:25;;;;;;;19.71;17.59;;;;;;;19.34;52.65;100742.02;465441;113;922519;-74
2022/07/01 01:35:28;;;;;;;17.52;15.63;;;;;;;19.34;52.65;100742.84;465468;114;922581;-75
2022/07/01 01:36:31;;;;;;;17.07;15.21;;;;;;;19.36;52.66;100746.16;465506;114;923140;-75
2022/07/01 01:37:34;;;;;;;22.26;15.04;;;;;;;19.35;52.69;100744.48;465422;114;922598;-74
2022/07/01 01:38:37;;;;;;;20.43;14.54;;;;;;;19.35;52.62;100741.72;465367;114;922629;-74
2022/07/01 01:39:40;;;;;;;15.72;14.17;;;;;;;19.34;52.63;100748.38;465442;113;922956;-75
2022/07/01 01:40:44;;;;;;;16.23;13.84;;;;;;;19.32;52.65;100749.73;465464;114;922502;-75
2022/07/01 01:41:47;;;;;;;21.71;15.35;;;;;;;19.32;52.61;100752.50;465318;114;922550;-74
2022/07/01 01:42:50;;;;;;;14.96;12.96;;;;;;;19.31;52.61;100753.59;465381;114;922534;-75
2022/07/01 01:43:53;;;;;;;19.12;13.88;;;;;;;19.29;52.66;100750.28;465476;114;922508;-73
2022/07/01 01:44:56;;;;;;;19.19;12.94;;;;;;;19.28;52.69;100743.92;465450;113;922515;-74
2022/07/01 01:46:01;;;;;;;14.23;12.79;;;;;;;19.28;52.71;100745.84;465461;114;922468;-74
2022/07/01 01:47:04;;;;;;;17.01;13.15;;;;;;;19.27;52.73;100752.47;465319;114;923071;-75
2022/07/01 01:48:07;;;;;;;16.66;12.88;;;;;;;19.26;53.01;100759.09;465464;114;930429;-75
2022/07/01 01:49:10;;;;;;;14.00;12.69;;;;;;;19.26;53.01;100759.09;465452;113;922546;-74
2022/07/01 01:50:14;;;;;;;16.49;14.38;;;;;;;19.25;52.82;100749.97;465345;114;922593;-76
2022/07/01 01:51:19;;;;;;;16.62;13.51;;;;;;;19.26;52.79;100750.80;465378;114;922643;-74
2022/07/01 01:52:22;;;;;;;14.68;13.18;;;;;;;19.26;52.77;100762.70;465271;114;922534;-73
2022/07/01 01:53:25;;;;;;;17.92;13.51;;;;;;;19.25;52.80;100751.89;465423;114;922536;-75
2022/07/01 01:54:28;;;;;;;18.42;14.09;;;;;;;19.25;52.73;100744.44;465369;114;922446;-74
2022/07/01 01:55:32;;;;;;;21.64;13.99;;;;;;;19.25;52.63;100751.89;465445;114;923126;-76
2022/07/01 01:56:35;;;;;;;17.63;14.31;;;;;;;19.25;52.57;100757.42;465442;113;922847;-75
2022/07/01 01:57:38;;;;;;;23.71;14.51;;;;;;;19.22;52.56;100758.81;465451;114;922961;-75
2022/07/01 01:58:42;;;;;;;14.47;12.97;;;;;;;19.20;52.52;100752.70;465462;114;922960;-74
2022/07/01 01:59:45;;;;;;;14.63;13.16;;;;;;;19.18;52.59;100765.14;465238;113;923235;-74
2022/07/01 02:00:49;;;;;;;16.91;14.42;;;;;;;19.16;52.72;100763.47;465514;114;922889;-75
2022/07/01 02:01:52;;;;;;;17.71;15.15;;;;;;;19.15;52.88;100761.80;465378;114;923039;-76
2022/07/01 02:02:55;;;;;;;17.54;14.70;;;;;;;19.13;52.78;100758.46;465376;114;930472;-75
2022/07/01 02:03:59;;;;;;;16.32;14.07;;;;;;;19.13;52.83;100757.66;465368;114;922596;-75
2022/07/01 02:05:04;;;;;;;16.73;14.46;;;;;;;19.12;52.87;100762.35;465334;113;922480;-74
2022/07/01 02:06:09;;;;;;;17.13;14.36;;;;;;;19.12;52.93;100759.59;465285;114;922865;-74
2022/07/01 02:07:12;;;;;;;16.34;14.69;;;;;;;19.11;52.95;100759.84;465302;114;922642;-74
2022/07/01 02:08:15;;;;;;;18.68;15.29;;;;;;;19.10;52.91;100764.53;465451;114;922597;-74
2022/07/01 02:09:18;;;;;;;18.03;15.01;;;;;;;19.09;52.98;100760.10;465425;113;922543;-75
2022/07/01 02:10:22;;;;;;;25.47;17.65;;;;;;;19.07;52.93;100761.48;465410;114;922636;-75
2022/07/01 02:11:25;;;;;;;21.63;18.02;;;;;;;19.06;52.96;100766.17;465447;114;922559;-75
2022/07/01 02:12:28;;;;;;;21.99;16.51;;;;;;;19.05;52.90;100764.51;465414;114;923056;-75
2022/07/01 02:13:31;;;;;;;29.23;18.49;;;;;;;19.03;52.86;100761.17;465480;114;922593;-75
2022/07/01 02:14:34;;;;;;;23.29;17.93;;;;;;;19.01;52.84;100765.31;465430;113;922553;-76
2022/07/01 02:15:39;;;;;;;23.41;18.64;;;;;;;18.98;52.80;100763.06;465322;114;922486;-75
2022/07/01 02:16:42;;;;;;;22.44;18.26;;;;;;;18.96;52.74;100759.75;465181;113;930629;-76
2022/07/01 02:17:45;;;;;;;25.89;18.64;;;;;;;18.93;52.76;100763.86;465483;114;923070;-73
2022/07/01 02:18:48;;;;;;;22.59;17.90;;;;;;;18.93;52.76;100763.86;465451;114;922989;-74
2022/07/01 02:19:52;;;;;;;28.74;19.55;;;;;;;18.92;52.77;100762.20;465339;113;922610;-74
2022/07/01 02:20:55;;;;;;;25.94;20.14;;;;;;;18.91;52.79;100759.72;465442;114;923004;-75
2022/07/01 02:21:58;;;;;;;23.06;20.28;;;;;;;18.89;52.75;100765.50;465398;114;923309;-75
2022/07/01 02:23:01;;;;;;;22.81;19.92;;;;;;;18.88;52.75;100761.06;465410;114;922519;-73
2022/07/01 02:24:04;;;;;;;22.57;20.24;;;;;;;18.88;52.79;100765.76;465461;114;922554;-75
2022/07/01 02:25:08;;;;;;;32.33;20.68;;;;;;;18.88;52.82;100761.06;465450;114;922506;-75
2022/07/01 02:26:12;;;;;;;25.86;19.46;;;;;;;18.89;52.80;100761.91;465285;114;923037;-75
2022/07/01 02:27:15;;;;;;;24.44;20.38;;;;;;;18.89;52.87;100759.14;465415;114;922875;-75
2022/07/01 02:28:18;;;;;;;26.13;21.79;;;;;;;18.89;52.85;100762.73;465481;114;922955;-75
2022/07/01 02:29:22;;;;;;;30.55;21.17;;;;;;;18.91;52.92;100762.48;465412;114;922917;-75
2022/07/01 02:30:27;;;;;;;28.37;21.21;;;;;;;18.93;52.94;100763.03;463015;114;922586;-76
2022/07/01 02:31:31;;;;;;;30.37;20.44;;;;;;;18.94;52.79;100764.70;465386;114;922958;-74
2022/07/01 02:32:34;;;;;;;22.78;20.46;;;;;;;18.94;52.74;100770.23;465400;114;922594;-74
2022/07/01 02:33:37;;;;;;;24.43;21.84;;;;;;;18.94;52.68;100765.53;465406;113;922493;-76
2022/07/01 02:34:40;;;;;;;23.09;20.31;;;;;;;18.95;52.67;100761.68;465430;113;922517;-75
2022/07/01 02:35:43;;;;;;;26.85;20.51;;;;;;;18.95;52.62;100752.55;465382;114;922996;-74
2022/07/01 02:36:48;;;;;;;24.63;20.37;;;;;;;18.95;52.56;100758.08;464824;114;922836;-76
2022/07/01 02:37:51;;;;;;;30.80;21.48;;;;;;;18.96;52.62;100752.30;465479;114;922694;-75
2022/07/01 02:38:54;;;;;;;26.33;20.29;;;;;;;18.97;52.70;100758.63;465434;114;922537;-74
2022/07/01 02:39:57;;;;;;;27.76;20.17;;;;;;;18.99;52.69;100765.57;465453;113;922992;-75
2022/07/01 02:41:00;;;;;;;24.95;19.28;;;;;;;18.99;52.70;100759.20;465410;114;922536;-75
2022/07/01 02:43:25;;;;;;;23.08;19.43;;;;;;;19.01;52.67;100762.55;465216;114;922520;-74
2022/07/01 02:44:28;;;;;;;22.67;19.59;;;;;;;19.00;52.71;100760.88;465391;113;922550;-74
2022/07/01 02:45:31;;;;;;;22.27;19.16;;;;;;;19.01;52.79;100771.67;465453;114;922548;-74
2022/07/01 02:46:35;;;;;;;23.48;18.29;;;;;;;19.01;52.76;100765.31;465394;114;922756;-75
2022/07/01 02:47:40;;;;;;;25.44;19.76;;;;;;;19.00;52.76;100763.64;465473;114;922812;-75
2022/07/01 02:48:43;;;;;;;22.39;18.62;;;;;;;19.00;52.75;100760.88;464613;114;923349;-76
2022/07/01 02:49:45;;;;;;;29.52;19.98;;;;;;;18.99;52.80;100762.80;457292;116;922613;-73
2022/07/01 02:50:49;;;;;;;24.47;18.94;;;;;;;18.99;52.98;100765.57;457264;116;922508;-75
2022/07/01 02:51:52;;;;;;;23.29;17.94;;;;;;;19.00;53.00;100760.88;457254;116;922925;-74
2022/07/01 02:52:55;;;;;;;21.05;16.87;;;;;;;19.00;53.10;100760.88;457188;116;922540;-75
2022/07/01 02:53:58;;;;;;;19.70;16.02;;;;;;;19.02;53.14;100765.02;457224;116;922534;-74
2022/07/01 02:55:02;;;;;;;19.72;16.62;;;;;;;19.03;53.22;100754.80;457244;116;923131;-75
2022/07/01 02:56:05;;;;;;;25.31;17.85;;;;;;;19.04;53.14;100765.60;457220;116;923180;-74
2022/07/01 02:57:08;;;;;;;22.22;18.13;;;;;;;19.06;53.08;100759.81;464300;114;922910;-74
2022/07/01 02:58:11;;;;;;;19.66;16.86;;;;;;;19.05;53.06;100758.14;465334;114;923062;-74
2022/07/01 02:59:14;;;;;;;18.89;16.92;;;;;;;19.05;52.99;100760.91;465287;113;930885;-74
2022/07/01 03:00:20;;;;;;;20.14;16.79;;;;;;;19.05;53.03;100760.91;464839;114;922587;-74
2022/07/01 03:01:23;;;;;;;19.30;16.18;;;;;;;19.04;53.03;100759.23;465360;114;922894;-76
2022/07/01 03:02:26;;;;;;;24.81;17.08;;;;;;;19.06;52.96;100762.58;465440;114;922547;-76
2022/07/01 03:03:29;;;;;;;23.51;17.98;;;;;;;19.05;52.90;100772.80;465477;114;922539;-75
2022/07/01 03:04:32;;;;;;;19.99;17.17;;;;;;;19.06;52.88;100762.58;465471;113;922641;-74
2022/07/01 03:05:36;;;;;;;19.59;17.31;;;;;;;19.04;52.92;100764.77;465474;114;923031;-74
2022/07/01 03:06:41;;;;;;;19.26;17.37;;;;;;;19.03;52.87;100765.86;465382;114;922564;-74
2022/07/01 03:07:44;;;;;;;25.71;17.76;;;;;;;19.03;52.92;100772.22;465207;114;923036;-74
2022/07/01 03:08:47;;;;;;;19.96;17.87;;;;;;;19.03;52.95;100763.09;465372;114;922822;-74
2022/07/01 03:09:50;;;;;;;21.52;17.68;;;;;;;19.04;52.93;100773.05;465386;113;923137;-74
2022/07/01 03:10:53;;;;;;;24.66;17.65;;;;;;;19.04;52.87;100770.30;465429;114;922486;-75
2022/07/01 03:11:56;;;;;;;21.29;17.34;;;;;;;19.03;52.80;100774.98;465442;114;922975;-74
2022/07/01 03:12:59;;;;;;;18.92;17.02;;;;;;;19.03;52.84;100772.22;465410;114;922742;-75
2022/07/01 03:14:02;;;;;;;19.16;16.59;;;;;;;19.02;52.91;100770.55;465386;114;922476;-74
2022/07/01 03:15:09;;;;;;;19.87;17.12;;;;;;;19.02;52.97;100772.52;465425;114;922819;-74
2022/07/01 03:16:14;;;;;;;19.90;16.61;;;;;;;19.03;52.94;100776.91;465187;114;922449;-73
2022/07/01 03:17:18;;;;;;;24.36;16.72;;;;;;;19.03;53.01;100774.15;465291;113;923123;-74
2022/07/01 03:18:21;;;;;;;24.43;16.33;;;;;;;19.03;53.05;100774.98;465565;114;922565;-73
2022/07/01 03:19:24;;;;;;;18.94;16.08;;;;;;;19.04;53.12;100775.82;465562;114;922466;-73
2022/07/01 03:20:29;;;;;;;18.31;15.22;;;;;;;19.05;53.21;100771.96;465312;114;922466;-76
2022/07/01 03:21:32;;;;;;;20.56;15.68;;;;;;;19.04;53.23;100773.05;465524;114;930662;-75
2022/07/01 03:22:37;;;;;;;16.82;15.22;;;;;;;19.04;53.26;100778.58;465508;114;922507;-75
2022/07/01 03:23:40;;;;;;;18.13;16.09;;;;;;;19.04;53.39;100782.19;465338;114;930470;-75
2022/07/01 03:24:43;;;;;;;22.73;16.25;;;;;;;19.06;53.47;100784.69;465560;114;923037;-75
2022/07/01 03:25:46;;;;;;;17.71;15.97;;;;;;;19.08;53.53;100782.47;465588;114;923080;-75
2022/07/01 03:26:49;;;;;;;17.95;16.09;;;;;;;19.08;53.55;100772.25;465584;114;922802;-76
2022/07/01 03:27:52;;;;;;;17.94;15.02;;;;;;;19.11;53.59;100771.73;465581;114;922516;-74
2022/07/01 03:28:55;;;;;;;19.44;15.32;;;;;;;19.15;53.56;100783.08;465571;114;922829;-74
2022/07/01 03:29:59;;;;;;;18.31;14.95;;;;;;;19.17;53.54;100780.89;457809;114;923487;-76
2022/07/01 03:31:02;;;;;;;24.79;16.29;;;;;;;19.20;53.50;100776.75;458231;115;922584;-74
2022/07/01 03:32:06;;;;;;;19.82;15.28;;;;;;;19.23;53.47;100781.76;458336;115;922551;-75
2022/07/01 03:33:09;;;;;;;21.04;16.17;;;;;;;19.25;53.45;100783.14;458217;115;923122;-75
2022/07/01 03:34:12;;;;;;;18.77;15.93;;;;;;;19.28;53.45;100781.79;453283;115;922464;-75
2022/07/01 03:36:36;;;;;;;20.26;15.64;;;;;;;19.33;53.34;100784.58;450256;117;922610;-75
2022/07/01 03:37:39;;;;;;;20.12;17.08;;;;;;;19.35;53.44;100777.66;450411;117;922697;-76
2022/07/01 03:38:43;;;;;;;22.37;17.94;;;;;;;19.36;53.35;100771.04;450458;117;923013;-75
2022/07/01 03:39:46;;;;;;;27.58;19.46;;;;;;;19.39;53.26;100775.22;450464;117;922637;-74
2022/07/01 03:40:49;;;;;;;25.25;21.22;;;;;;;19.40;53.29;100774.12;450384;117;922514;-74
2022/07/01 03:41:52;;;;;;;35.54;24.37;;;;;;;19.42;53.26;100774.66;450301;117;922999;-74
2022/07/01 03:42:56;;;;;;;33.73;24.88;;;;;;;19.43;53.23;100768.04;450403;117;922533;-75
2022/07/01 03:43:59;;;;;;;37.72;25.44;;;;;;;19.44;53.20;100770.55;450423;117;922586;-73
2022/07/01 03:45:01;;;;;;;38.41;26.74;;;;;;;19.45;53.13;100772.25;450424;117;923101;-75
2022/07/01 03:46:04;;;;;;;39.60;28.31;;;;;;;19.46;53.13;100771.12;450478;117;922992;-75
2022/07/01 03:47:07;;;;;;;41.22;27.76;;;;;;;19.47;53.03;100764.49;450481;117;922972;-75
2022/07/01 03:48:10;;;;;;;35.34;29.27;;;;;;;19.48;52.97;100765.33;450501;117;922645;-75
2022/07/01 03:49:13;;;;;;;40.01;29.15;;;;;;;19.48;52.87;100760.63;450405;117;923057;-75
2022/07/01 03:50:20;;;;;;;49.32;28.90;;;;;;;19.49;52.82;100767.84;450352;117;923029;-75
2022/07/01 03:51:23;;;;;;;41.10;28.76;;;;;;;19.51;52.68;100773.11;450264;117;922592;-75
2022/07/01 03:52:26;;;;;;;39.55;29.45;;;;;;;19.52;52.54;100766.45;450434;117;922936;-74
2022/07/01 03:54:50;;;;;;;41.67;28.90;;;;;;;19.54;52.44;100767.86;462460;114;923066;-75
2022/07/01 03:55:53;;;;;;;36.95;27.36;;;;;;;19.57;52.42;100769.27;456512;116;922589;-73
2022/07/01 03:57:04;;;;;;;37.67;27.12;;;;;;;19.60;52.39;100767.88;456563;116;922487;-74
2022/07/01 03:58:07;;;;;;;39.19;27.22;;;;;;;19.61;52.37;100764.85;456428;116;922715;-75
2022/07/01 03:59:10;;;;;;;35.51;27.99;;;;;;;19.64;52.34;100763.46;461235;113;923040;-75
2022/07/01 04:00:14;;;;;;;37.62;27.35;;;;;;;19.66;52.38;100767.64;465507;114;922591;-74
2022/07/01 04:01:20;;;;;;;40.39;28.56;;;;;;;19.69;52.42;100763.48;464993;114;922546;-75
2022/07/01 04:02:23;;;;;;;36.58;26.48;;;;;;;19.70;52.47;100763.22;465537;114;923110;-74
2022/07/01 04:03:26;;;;;;;40.91;27.94;;;;;;;19.73;52.46;100765.46;465630;114;922563;-75
2022/07/01 04:04:30;;;;;;;34.06;26.47;;;;;;;19.75;52.41;100765.16;465493;114;922477;-75
2022/07/01 04:05:35;;;;;;;39.06;28.15;;;;;;;19.76;52.50;100764.91;465488;114;922611;-74
2022/07/01 04:06:38;;;;;;;41.03;28.96;;;;;;;19.78;52.34;100765.48;465411;114;922605;-74
2022/07/01 04:07:41;;;;;;;40.29;28.74;;;;;;;19.79;52.33;100767.11;465530;114;930283;-76
2022/07/01 04:08:46;;;;;;;37.32;27.67;;;;;;;19.80;52.21;100763.25;465530;114;923070;-76
2022/07/01 04:09:49;;;;;;;39.74;28.36;;;;;;;19.82;52.19;100761.05;465468;114;922975;-75
2022/07/01 04:10:54;;;;;;;39.80;28.22;;;;;;;19.85;52.20;100765.20;465506;114;922564;-75
2022/07/01 04:11:58;;;;;;;44.15;29.73;;;;;;;19.86;52.04;100773.23;465401;114;930498;-74
2022/07/01 04:13:02;;;;;;;39.44;29.37;;;;;;;19.88;51.86;100764.67;465392;114;930255;-74
2022/07/01 04:14:07;;;;;;;44.16;29.67;;;;;;;19.90;51.75;100762.48;462560;114;922556;-74
2022/07/01 04:15:11;;;;;;;41.01;29.44;;;;;;;19.92;51.78;100760.25;465524;114;923049;-75
2022/07/01 04:16:17;;;;;;;42.32;30.16;;;;;;;19.93;51.66;100754.45;465439;114;922797;-74
2022/07/01 04:17:20;;;;;;;48.28;30.49;;;;;;;19.96;51.67;100761.36;465397;113;922635;-74
2022/07/01 04:18:23;;;;;;;43.64;30.84;;;;;;;19.97;51.60;100769.40;465462;114;922607;-74
2022/07/01 04:19:26;;;;;;;42.62;29.93;;;;;;;20.00;51.61;100759.73;465425;113;922464;-75
2022/07/01 04:20:30;;;;;;;42.01;30.68;;;;;;;20.00;51.68;100762.50;465353;114;922804;-76
2022/07/01 04:22:55;;;;;;;40.32;30.16;;;;;;;20.03;51.67;100761.94;465172;114;923303;-75
2022/07/01 04:23:58;;;;;;;48.15;31.16;;;;;;;20.05;51.75;100756.14;465332;114;922544;-75
2022/07/01 04:25:07;;;;;;;42.04;31.57;;;;;;;20.08;51.59;100758.34;465436;113;922542;-75
2022/07/01 04:26:10;;;;;;;45.83;30.74;;;;;;;20.10;51.65;100754.22;465271;114;923093;-74
2022/07/01 04:27:15;;;;;;;43.36;31.02;;;;;;;20.13;51.75;100758.36;462027;114;922486;-75
2022/07/01 04:28:18;;;;;;;40.86;30.38;;;;;;;20.16;51.77;100758.66;465492;114;922562;-75
2022/07/01 04:29:21;;;;;;;47.82;32.98;;;;;;;20.19;51.82;100757.27;465428;113;922801;-75
2022/07/01 04:30:26;;;;;;;50.19;31.98;;;;;;;20.20;51.86;100757.00;462548;114;922479;-75
2022/07/01 04:31:28;;;;;;;52.56;32.43;;;;;;;20.23;51.82;100755.64;465427;114;923057;-75
2022/07/01 04:32:32;;;;;;;46.91;33.15;;;;;;;20.25;51.82;100756.17;465407;114;922818;-74
2022/07/01 04:33:34;;;;;;;43.36;32.84;;;;;;;20.27;51.77;100759.51;465463;114;922549;-75
2022/07/01 04:34:37;;;;;;;47.13;32.70;;;;;;;20.28;51.76;100756.47;465429;114;922624;-74
2022/07/01 04:35:41;;;;;;;42.72;32.83;;;;;;;20.30;51.66;100758.95;465376;114;922903;-75
2022/07/01 04:36:44;;;;;;;50.92;34.38;;;;;;;20.33;51.55;100750.97;465412;114;923214;-75
2022/07/01 04:37:47;;;;;;;46.76;34.44;;;;;;;20.35;51.62;100754.28;465414;114;922525;-75
2022/07/01 04:38:50;;;;;;;51.27;35.43;;;;;;;20.39;51.51;100751.81;465459;114;922528;-75
2022/07/01 04:39:53;;;;;;;60.04;38.29;;;;;;;20.42;51.52;100748.47;465426;113;922514;-74
2022/07/01 04:42:20;;;;;;;52.72;34.89;;;;;;;20.48;51.54;100757.62;465249;114;922673;-75
2022/07/01 04:43:22;;;;;;;49.43;35.37;;;;;;;20.50;51.67;100755.41;465223;114;922521;-76
2022/07/01 04:44:27;;;;;;;50.18;35.16;;;;;;;20.53;51.74;100752.08;465452;113;922555;-75
2022/07/01 04:45:30;;;;;;;46.10;34.51;;;;;;;20.54;51.80;100749.04;465328;114;922563;-76
2022/07/01 04:46:33;;;;;;;52.51;36.71;;;;;;;20.57;51.77;100754.02;465459;114;922546;-75
2022/07/01 04:47:36;;;;;;;55.53;35.62;;;;;;;20.59;51.84;100753.74;465415;113;922588;-75
2022/07/01 04:48:39;;;;;;;53.46;36.76;;;;;;;20.61;51.83;100760.69;465425;114;922475;-75
2022/07/01 04:49:43;;;;;;;53.22;36.91;;;;;;;20.65;51.81;100753.47;465323;113;922510;-75
2022/07/01 04:50:45;;;;;;;57.63;35.83;;;;;;;20.67;51.87;100758.75;465449;114;923026;-75
2022/07/01 04:51:49;;;;;;;58.86;37.07;;;;;;;20.71;51.88;100754.30;459400;114;922554;-76
2022/07/01 04:52:52;;;;;;;53.74;36.79;;;;;;;20.72;51.86;100756.81;456083;116;922658;-75